createdAt,value
2018-08-03T09:23:41.976Z,11.25
2018-08-03T09:24:41.966Z,11.25
2018-08-03T09:25:41.870Z,11.25
2018-08-03T09:26:41.811Z,11.25
2018-08-03T09:27:41.757Z,11.25
2018-08-03T09:28:41.729Z,11.25
2018-08-03T09:29:41.657Z,5.62
2018-08-03T09:30:51.732Z,5.62
2018-08-03T09:31:51.682Z,5.62
2018-08-03T09:32:51.670Z,5.62
2018-08-03T09:33:51.679Z,5.62
2018-08-03T09:34:51.646Z,5.62
2018-08-03T09:35:51.638Z,5.62
2018-08-03T09:36:51.627Z,5.62
2018-08-03T09:37:51.615Z,16.88
2018-08-03T09:38:51.630Z,16.88
2018-08-03T09:39:51.592Z,16.88
2018-08-03T10:03:02.806Z,3521.25
2018-08-03T10:04:02.770Z,3481.88
2018-08-03T10:05:02.761Z,3346.88
2018-08-03T10:06:02.749Z,3476.25
2018-08-03T10:07:02.762Z,3600.00
2018-08-03T10:08:02.730Z,3611.25
2018-08-03T10:09:02.722Z,3690.00
2018-08-03T10:10:02.710Z,3616.88
2018-08-03T10:11:02.699Z,3706.88
2018-08-03T10:12:02.721Z,3802.50
2018-08-03T10:13:02.689Z,3594.38
2018-08-03T10:14:02.704Z,3369.38
2018-08-03T10:15:02.667Z,3493.12
2018-08-03T10:16:02.657Z,3718.12
2018-08-03T10:17:02.671Z,3785.62
2018-08-03T10:18:02.642Z,3825.00
2018-08-03T10:19:02.636Z,3768.75
2018-08-03T10:20:02.629Z,3538.12
2018-08-03T10:21:02.619Z,3678.75
2018-08-03T10:22:02.627Z,3886.88
2018-08-03T10:23:02.606Z,3886.88
2018-08-03T10:24:02.629Z,3656.25
2018-08-03T10:25:02.593Z,3796.88
2018-08-03T10:26:02.602Z,3740.62
2018-08-03T10:27:02.599Z,3802.50
2018-08-03T10:28:02.580Z,3903.75
2018-08-03T10:29:02.562Z,3881.25
2018-08-03T10:30:02.565Z,3988.12
2018-08-03T10:31:02.582Z,3937.50
2018-08-03T10:32:02.542Z,4027.50
2018-08-03T10:33:02.533Z,3920.62
2018-08-03T10:34:02.530Z,3830.62
2018-08-03T10:35:02.532Z,3976.88
2018-08-03T10:36:02.555Z,3976.88
2018-08-03T10:37:02.506Z,3903.75
2018-08-03T10:38:02.503Z,3976.88
2018-08-03T10:39:02.516Z,2593.12
2018-08-03T10:40:02.486Z,855.00
2018-08-03T10:41:02.512Z,376.88
2018-08-03T10:42:02.504Z,376.88
2018-08-03T10:43:02.492Z,382.50
2018-08-03T10:44:02.458Z,388.12
2018-08-03T10:45:02.452Z,382.50
2018-08-03T10:46:02.444Z,393.75
2018-08-03T10:47:02.520Z,393.75
2018-08-03T10:48:02.452Z,388.12
2018-08-03T10:49:02.418Z,382.50
2018-08-03T10:50:02.410Z,388.12
2018-08-03T10:51:02.403Z,399.38
2018-08-03T10:52:02.391Z,399.38
2018-08-03T10:53:02.415Z,399.38
2018-08-03T10:54:02.376Z,405.00
2018-08-03T10:55:02.370Z,405.00
2018-08-03T10:56:02.359Z,382.50
2018-08-03T10:57:02.350Z,388.12
2018-08-03T10:58:02.361Z,405.00
2018-08-03T10:59:02.370Z,410.62
2018-08-03T11:00:02.318Z,399.38
2018-08-03T11:01:02.310Z,393.75
2018-08-03T11:02:02.305Z,399.38
2018-08-03T11:03:02.291Z,405.00
2018-08-03T11:04:02.315Z,399.38
2018-08-03T11:05:02.273Z,416.25
2018-08-03T11:06:02.263Z,416.25
2018-08-03T11:07:02.252Z,416.25
2018-08-03T11:08:02.245Z,393.75
2018-08-03T11:09:02.262Z,309.38
2018-08-03T11:10:02.225Z,241.88
2018-08-03T11:11:02.215Z,298.12
2018-08-03T11:12:02.205Z,410.62
2018-08-03T11:13:02.196Z,416.25
2018-08-03T11:14:02.284Z,416.25
2018-08-03T11:15:02.173Z,416.25
2018-08-03T11:16:02.168Z,427.50
2018-08-03T11:17:02.161Z,427.50
2018-08-03T11:18:02.144Z,399.38
2018-08-03T11:19:02.164Z,405.00
2018-08-03T11:20:02.125Z,416.25
2018-08-03T11:21:02.115Z,427.50
2018-08-03T11:22:02.105Z,421.88
2018-08-03T11:23:02.095Z,410.62
2018-08-03T11:24:02.210Z,405.00
2018-08-03T11:25:02.098Z,399.38
2018-08-03T11:26:02.070Z,410.62
2018-08-03T11:27:02.077Z,416.25
2018-08-03T11:28:02.046Z,427.50
2018-08-03T11:29:02.038Z,427.50
2018-08-03T11:30:02.030Z,427.50
2018-08-03T11:31:02.042Z,438.75
2018-08-03T11:32:02.011Z,421.88
2018-08-03T11:33:01.999Z,258.75
2018-08-03T11:34:02.011Z,213.75
2018-08-03T11:35:02.034Z,371.25
2018-08-03T11:36:01.972Z,466.88
2018-08-03T11:37:01.992Z,500.62
2018-08-03T11:38:01.948Z,506.25
2018-08-03T11:39:01.936Z,517.50
2018-08-03T11:40:01.933Z,523.12
2018-08-03T11:41:01.918Z,506.25
2018-08-03T11:42:01.968Z,540.00
2018-08-03T11:43:01.904Z,523.12
2018-08-03T11:44:01.889Z,483.75
2018-08-03T11:45:01.878Z,489.38
2018-08-03T11:46:02.000Z,438.75
2018-08-03T11:47:01.857Z,270.00
2018-08-03T11:48:01.851Z,433.12
2018-08-03T11:49:01.843Z,213.75
2018-08-03T11:50:01.830Z,213.75
2018-08-03T11:51:01.849Z,230.62
2018-08-03T11:52:01.809Z,253.12
2018-08-03T11:53:01.800Z,258.75
2018-08-03T11:54:01.836Z,523.12
2018-08-03T11:55:01.778Z,500.62
2018-08-03T11:56:01.787Z,506.25
2018-08-03T11:57:01.755Z,472.50
2018-08-03T11:58:01.745Z,371.25
2018-08-03T11:59:01.736Z,225.00
2018-08-03T12:00:01.753Z,326.25
2018-08-03T12:01:01.718Z,517.50
2018-08-03T12:02:01.800Z,511.88
2018-08-03T12:03:01.697Z,472.50
2018-08-03T12:04:01.691Z,472.50
2018-08-03T12:05:01.677Z,478.12
2018-08-03T12:06:01.693Z,225.00
2018-08-03T12:07:01.658Z,196.88
2018-08-03T12:08:01.647Z,196.88
2018-08-03T12:09:01.639Z,292.50
2018-08-03T12:10:01.629Z,348.75
2018-08-03T12:11:01.639Z,466.88
2018-08-03T12:12:01.610Z,495.00
2018-08-03T12:13:01.601Z,500.62
2018-08-03T12:14:01.616Z,483.75
2018-08-03T12:15:01.582Z,455.62
2018-08-03T12:16:01.572Z,444.38
2018-08-03T12:17:01.558Z,455.62
2018-08-03T12:18:01.661Z,483.75
2018-08-03T12:19:01.540Z,478.12
2018-08-03T12:20:01.529Z,455.62
2018-08-03T12:21:01.521Z,421.88
2018-08-03T12:22:01.514Z,405.00
2018-08-03T12:23:01.523Z,393.75
2018-08-03T12:24:01.495Z,371.25
2018-08-03T12:25:01.481Z,354.38
2018-08-03T12:26:01.468Z,354.38
2018-08-03T12:27:01.497Z,354.38
2018-08-03T12:28:01.448Z,360.00
2018-08-03T12:29:01.455Z,360.00
2018-08-03T12:30:01.433Z,348.75
2018-08-03T12:31:01.424Z,348.75
2018-08-03T12:32:01.440Z,348.75
2018-08-03T12:33:01.407Z,348.75
2018-08-03T12:34:02.962Z,354.38
2018-08-03T12:35:01.381Z,365.62
2018-08-03T12:36:01.371Z,371.25
2018-08-03T12:37:01.423Z,416.25
2018-08-03T12:38:01.359Z,438.75
2018-08-03T12:39:01.341Z,433.12
2018-08-03T12:40:01.337Z,433.12
2018-08-03T12:41:01.332Z,438.75
2018-08-03T12:42:01.331Z,455.62
2018-08-03T12:43:01.301Z,461.25
2018-08-03T12:44:01.296Z,461.25
2018-08-03T12:45:01.310Z,450.00
2018-08-03T12:46:01.346Z,444.38
2018-08-03T12:47:01.266Z,461.25
2018-08-03T12:48:01.254Z,466.88
2018-08-03T12:49:01.243Z,455.62
2018-08-03T12:50:01.255Z,450.00
2018-08-03T12:51:01.223Z,450.00
2018-08-03T12:52:01.244Z,450.00
2018-08-03T12:53:01.286Z,450.00
2018-08-03T12:54:01.194Z,444.38
2018-08-03T12:55:01.184Z,444.38
2018-08-03T12:56:01.181Z,433.12
2018-08-03T12:57:01.198Z,534.38
2018-08-03T12:58:01.153Z,2188.12
2018-08-03T12:59:01.145Z,3768.75
2018-08-03T13:00:01.131Z,3858.75
2018-08-03T13:01:01.125Z,4033.12
2018-08-03T13:02:01.236Z,3937.50
2018-08-03T13:03:01.103Z,3819.38
2018-08-03T13:04:01.097Z,3830.62
2018-08-03T13:05:01.091Z,3690.00
2018-08-03T13:06:01.078Z,3656.25
2018-08-03T13:07:01.091Z,3560.62
2018-08-03T13:08:01.313Z,3622.50
2018-08-03T13:09:01.049Z,3740.62
2018-08-03T13:10:01.043Z,3082.50
2018-08-03T13:11:01.072Z,1338.75
2018-08-03T13:12:01.084Z,450.00
2018-08-03T13:13:01.048Z,427.50
2018-08-03T13:14:01.051Z,405.00
2018-08-03T13:15:01.184Z,399.38
2018-08-03T13:16:01.080Z,399.38
2018-08-03T13:17:01.056Z,393.75
2018-08-03T13:18:01.071Z,393.75
2018-08-03T13:19:01.048Z,388.12
2018-08-03T13:20:01.063Z,382.50
2018-08-03T13:21:01.052Z,376.88
2018-08-03T13:22:00.960Z,376.88
2018-08-03T13:23:00.952Z,382.50
2018-08-03T13:24:00.963Z,371.25
2018-08-03T13:25:01.057Z,371.25
2018-08-03T13:26:00.942Z,376.88
2018-08-03T13:27:00.915Z,371.25
2018-08-03T13:28:00.947Z,371.25
2018-08-03T13:29:00.911Z,376.88
2018-08-03T13:30:00.897Z,393.75
2018-08-03T13:31:01.112Z,421.88
2018-08-03T13:32:00.903Z,528.75
2018-08-03T13:33:00.899Z,1833.75
2018-08-03T13:34:00.884Z,3436.88
2018-08-03T13:35:00.876Z,3802.50
2018-08-03T13:36:00.822Z,3746.25
2018-08-03T13:37:00.970Z,3757.50
2018-08-03T13:38:01.182Z,3740.62
2018-08-03T13:39:00.830Z,3746.25
2018-08-03T13:40:00.782Z,3701.25
2018-08-03T14:07:27.080Z,1231.88
2018-08-03T14:08:27.046Z,1231.88
2018-08-03T14:09:27.044Z,1243.12
2018-08-03T14:10:27.056Z,1271.25
2018-08-03T14:11:27.024Z,1271.25
2018-08-03T14:12:27.021Z,1276.88
2018-08-03T14:13:27.045Z,1282.50
2018-08-03T14:14:27.006Z,1282.50
2018-08-03T14:15:27.067Z,1265.62
2018-08-03T14:16:27.001Z,1254.38
2018-08-03T14:17:26.992Z,1254.38
2018-08-03T14:18:27.012Z,1248.75
2018-08-03T14:19:26.971Z,1248.75
2018-08-03T14:20:26.966Z,1248.75
2018-08-03T14:21:26.955Z,1254.38
2018-08-03T14:22:27.023Z,1248.75
2018-08-03T14:23:26.970Z,1186.88
2018-08-03T14:24:26.937Z,528.75
2018-08-03T14:25:26.964Z,489.38
2018-08-03T14:26:26.921Z,365.62
2018-08-03T14:27:26.915Z,337.50
2018-08-03T14:28:26.943Z,427.50
2018-08-03T14:29:26.905Z,877.50
2018-08-03T14:30:26.903Z,832.50
2018-08-03T14:31:26.928Z,1192.50
2018-08-03T14:32:26.876Z,855.00
2018-08-03T14:33:26.893Z,669.38
2018-08-03T14:34:26.860Z,450.00
2018-08-03T14:35:26.851Z,416.25
2018-08-03T14:36:26.843Z,579.38
2018-08-03T14:37:26.836Z,1136.25
2018-08-03T14:38:27.955Z,1186.88
2018-08-03T14:39:26.818Z,556.88
2018-08-03T14:40:26.822Z,382.50
2018-08-03T14:41:26.802Z,410.62
2018-08-03T14:42:26.792Z,270.00
2018-08-03T14:43:26.797Z,270.00
2018-08-03T14:44:26.799Z,270.00
2018-08-03T14:45:26.762Z,264.38
2018-08-03T14:46:26.753Z,270.00
2018-08-03T14:47:26.751Z,270.00
2018-08-03T14:48:26.738Z,275.62
2018-08-03T14:49:26.751Z,264.38
2018-08-03T14:50:26.956Z,270.00
2018-08-03T14:51:26.815Z,382.50
2018-08-03T14:52:26.733Z,337.50
2018-08-03T14:53:26.687Z,348.75
2018-08-03T14:54:26.677Z,365.62
2018-08-03T14:55:26.668Z,264.38
2018-08-03T14:56:26.656Z,247.50
2018-08-03T14:57:26.673Z,365.62
2018-08-03T14:58:26.636Z,506.25
2018-08-03T14:59:26.628Z,511.88
2018-08-03T15:00:26.618Z,281.25
2018-08-03T15:01:26.608Z,258.75
2018-08-03T15:02:26.626Z,292.50
2018-08-03T15:03:26.590Z,309.38
2018-08-03T15:04:26.580Z,258.75
2018-08-03T15:05:26.569Z,264.38
2018-08-03T15:06:26.559Z,264.38
2018-08-03T15:07:26.572Z,270.00
2018-08-03T15:08:26.540Z,742.50
2018-08-03T15:09:26.529Z,675.00
2018-08-03T15:10:26.530Z,253.12
2018-08-03T15:11:26.533Z,236.25
2018-08-03T15:12:26.506Z,241.88
2018-08-03T15:13:26.492Z,247.50
2018-08-03T15:14:26.512Z,247.50
2018-08-03T15:15:26.472Z,247.50
2018-08-03T15:16:26.490Z,247.50
2018-08-03T15:17:26.452Z,241.88
2018-08-03T15:18:26.478Z,236.25
2018-08-03T15:19:26.631Z,236.25
2018-08-03T15:20:26.425Z,236.25
2018-08-03T15:21:26.415Z,236.25
2018-08-03T15:22:26.413Z,230.62
2018-08-03T15:23:26.420Z,230.62
2018-08-03T15:24:26.388Z,225.00
2018-08-03T15:25:26.407Z,230.62
2018-08-03T15:26:26.365Z,230.62
2018-08-03T15:27:26.356Z,230.62
2018-08-03T15:28:26.347Z,230.62
2018-08-03T15:29:26.337Z,230.62
2018-08-03T15:30:26.351Z,236.25
2018-08-03T15:31:26.314Z,230.62
2018-08-03T15:32:26.308Z,236.25
2018-08-03T15:33:26.332Z,230.62
2018-08-03T15:34:26.287Z,230.62
2018-08-03T15:35:26.275Z,230.62
2018-08-03T15:36:26.268Z,230.62
2018-08-03T15:37:26.254Z,230.62
2018-08-03T15:38:26.274Z,230.62
2018-08-03T15:39:26.240Z,230.62
2018-08-03T15:40:26.226Z,230.62
2018-08-03T15:41:26.294Z,236.25
2018-08-03T15:42:26.204Z,236.25
2018-08-03T15:43:26.228Z,236.25
2018-08-03T15:44:26.192Z,230.62
2018-08-03T15:45:26.178Z,230.62
2018-08-03T15:46:26.165Z,230.62
2018-08-03T15:47:26.174Z,230.62
2018-08-03T15:48:26.171Z,230.62
2018-08-03T15:49:26.137Z,230.62
2018-08-03T15:50:26.161Z,230.62
2018-08-03T15:51:26.120Z,230.62
2018-08-03T15:52:26.105Z,230.62
2018-08-03T15:53:26.101Z,230.62
2018-08-03T15:54:26.086Z,225.00
2018-08-03T15:55:26.102Z,225.00
2018-08-03T15:56:26.069Z,219.38
2018-08-03T15:57:26.059Z,219.38
2018-08-03T15:58:26.048Z,219.38
2018-08-03T15:59:26.070Z,225.00
2018-08-03T16:00:26.026Z,213.75
2018-08-03T16:01:26.018Z,213.75
2018-08-03T16:02:26.040Z,208.12
2018-08-03T16:03:25.998Z,208.12
2018-08-03T16:04:25.986Z,208.12
2018-08-03T16:05:25.976Z,208.12
2018-08-03T16:06:25.972Z,208.12
2018-08-03T16:07:25.990Z,202.50
2018-08-03T16:08:25.947Z,202.50
2018-08-03T16:09:25.947Z,202.50
2018-08-03T16:10:25.934Z,202.50
2018-08-03T16:11:25.924Z,196.88
2018-08-03T16:12:25.939Z,196.88
2018-08-03T16:13:25.897Z,196.88
2018-08-03T16:14:25.890Z,196.88
2018-08-03T16:15:25.880Z,196.88
2018-08-03T16:16:25.867Z,191.25
2018-08-03T16:17:25.900Z,191.25
2018-08-03T16:18:25.848Z,185.62
2018-08-03T16:19:25.837Z,185.62
2018-08-03T16:20:25.832Z,185.62
2018-08-03T16:21:25.820Z,180.00
2018-08-03T16:22:25.843Z,180.00
2018-08-03T16:23:25.803Z,180.00
2018-08-03T16:24:25.787Z,174.38
2018-08-03T16:25:25.781Z,174.38
2018-08-03T16:26:25.771Z,174.38
2018-08-03T16:27:25.782Z,168.75
2018-08-03T16:28:25.747Z,168.75
2018-08-03T16:29:25.761Z,168.75
2018-08-03T16:30:25.726Z,163.12
2018-08-03T16:31:25.714Z,163.12
2018-08-03T16:32:25.727Z,163.12
2018-08-03T16:33:25.693Z,157.50
2018-08-03T16:34:25.706Z,157.50
2018-08-03T16:35:25.672Z,157.50
2018-08-03T16:36:25.665Z,157.50
2018-08-03T16:37:25.660Z,157.50
2018-08-03T16:38:25.677Z,157.50
2018-08-03T16:39:25.631Z,157.50
2018-08-03T16:40:25.622Z,151.88
2018-08-03T16:41:25.610Z,151.88
2018-08-03T16:42:25.634Z,146.25
2018-08-03T16:43:25.590Z,146.25
2018-08-03T16:44:25.582Z,140.62
2018-08-03T16:45:25.570Z,140.62
2018-08-03T16:46:25.564Z,140.62
2018-08-03T16:47:25.688Z,140.62
2018-08-03T16:48:25.561Z,135.00
2018-08-03T16:49:25.538Z,135.00
2018-08-03T16:50:25.521Z,129.38
2018-08-03T16:51:25.509Z,129.38
2018-08-03T16:52:25.537Z,129.38
2018-08-03T16:53:25.506Z,129.38
2018-08-03T16:54:25.480Z,123.75
2018-08-03T16:55:25.468Z,118.12
2018-08-03T16:56:25.459Z,118.12
2018-08-03T16:57:25.470Z,112.50
2018-08-03T16:58:25.443Z,112.50
2018-08-03T16:59:25.440Z,106.88
2018-08-03T17:00:25.416Z,101.25
2018-08-03T17:01:25.440Z,101.25
2018-08-03T17:02:25.396Z,95.62
2018-08-03T17:03:25.384Z,101.25
2018-08-03T17:04:25.375Z,101.25
2018-08-03T17:05:25.365Z,101.25
2018-08-03T17:06:25.381Z,95.62
2018-08-03T17:07:25.346Z,95.62
2018-08-03T17:08:25.359Z,95.62
2018-08-03T17:09:25.326Z,95.62
2018-08-03T17:10:25.333Z,90.00
2018-08-03T17:11:25.304Z,90.00
2018-08-03T17:12:25.295Z,90.00
2018-08-03T17:13:25.308Z,90.00
2018-08-03T17:14:25.290Z,84.38
2018-08-03T17:15:25.266Z,84.38
2018-08-03T17:16:25.252Z,84.38
2018-08-03T17:17:25.244Z,78.75
2018-08-03T17:18:25.259Z,78.75
2018-08-03T17:19:25.221Z,78.75
2018-08-03T17:20:25.209Z,78.75
2018-08-03T17:21:25.200Z,78.75
2018-08-03T17:22:25.191Z,73.12
2018-08-03T17:23:25.204Z,73.12
2018-08-03T17:24:25.170Z,73.12
2018-08-03T17:25:25.159Z,67.50
2018-08-03T17:26:25.148Z,67.50
2018-08-03T17:27:25.138Z,67.50
2018-08-03T17:28:25.163Z,67.50
2018-08-03T17:29:25.120Z,67.50
2018-08-03T17:30:25.105Z,67.50
2018-08-03T17:31:25.095Z,67.50
2018-08-03T17:32:25.089Z,67.50
2018-08-03T17:33:25.111Z,61.88
2018-08-03T17:34:25.064Z,61.88
2018-08-03T17:35:25.053Z,61.88
2018-08-03T17:36:25.046Z,61.88
2018-08-03T17:37:25.034Z,61.88
2018-08-03T17:38:25.047Z,56.25
2018-08-03T17:39:25.012Z,56.25
2018-08-03T17:40:25.003Z,56.25
2018-08-03T17:41:24.992Z,56.25
2018-08-03T17:42:25.052Z,56.25
2018-08-03T17:43:24.995Z,56.25
2018-08-03T17:44:24.977Z,50.62
2018-08-03T17:45:24.958Z,50.62
2018-08-03T17:46:24.939Z,50.62
2018-08-03T17:47:24.928Z,50.62
2018-08-03T17:48:24.922Z,50.62
2018-08-03T17:49:24.942Z,50.62
2018-08-03T17:50:24.909Z,50.62
2018-08-03T17:51:24.888Z,50.62
2018-08-03T17:52:24.874Z,45.00
2018-08-03T17:53:24.864Z,45.00
2018-08-03T17:54:24.879Z,45.00
2018-08-03T17:55:24.842Z,45.00
2018-08-03T17:56:24.863Z,45.00
2018-08-03T17:57:24.851Z,45.00
2018-08-03T17:58:24.812Z,45.00
2018-08-03T17:59:24.803Z,45.00
2018-08-03T18:00:24.792Z,39.38
2018-08-03T18:01:24.782Z,39.38
2018-08-03T18:02:24.790Z,39.38
2018-08-03T18:03:24.760Z,39.38
2018-08-03T18:04:24.746Z,39.38
2018-08-03T18:05:24.738Z,39.38
2018-08-03T18:06:24.726Z,39.38
2018-08-03T18:07:24.738Z,39.38
2018-08-03T18:08:24.706Z,39.38
2018-08-03T18:09:24.748Z,33.75
2018-08-03T18:10:24.684Z,33.75
2018-08-03T18:11:24.671Z,33.75
2018-08-03T18:12:24.693Z,33.75
2018-08-03T18:13:24.687Z,33.75
2018-08-03T18:14:24.642Z,28.12
2018-08-03T18:15:24.633Z,28.12
2018-08-03T18:16:24.618Z,28.12
2018-08-03T18:17:24.610Z,28.12
2018-08-03T18:18:24.624Z,28.12
2018-08-03T18:19:24.587Z,28.12
2018-08-03T18:20:24.580Z,28.12
2018-08-03T18:21:24.568Z,28.12
2018-08-03T18:22:24.557Z,28.12
2018-08-03T18:23:24.582Z,28.12
2018-08-03T18:24:24.536Z,28.12
2018-08-03T18:25:24.524Z,22.50
2018-08-03T18:26:24.517Z,22.50
2018-08-03T18:27:24.507Z,22.50
2018-08-03T18:28:24.522Z,22.50
2018-08-03T18:29:24.488Z,22.50
2018-08-03T18:30:24.476Z,22.50
2018-08-03T18:31:24.527Z,22.50
2018-08-03T18:32:24.455Z,22.50
2018-08-03T18:33:24.475Z,16.88
2018-08-03T18:34:24.436Z,16.88
2018-08-03T18:35:24.422Z,16.88
2018-08-03T18:36:24.408Z,16.88
2018-08-03T18:37:24.398Z,16.88
2018-08-03T18:38:24.423Z,16.88
2018-08-03T18:39:24.379Z,16.88
2018-08-03T18:40:24.371Z,16.88
2018-08-03T18:41:24.354Z,16.88
2018-08-03T18:42:24.344Z,11.25
2018-08-03T18:43:24.364Z,11.25
2018-08-03T18:44:24.326Z,11.25
2018-08-03T18:45:24.348Z,11.25
2018-08-03T18:46:24.307Z,11.25
2018-08-03T18:47:24.302Z,11.25
2018-08-03T18:48:24.282Z,11.25
2018-08-03T18:49:24.273Z,11.25
2018-08-03T18:50:24.383Z,11.25
2018-08-03T18:51:24.250Z,5.62
2018-08-03T18:52:24.237Z,5.62
2018-08-03T18:53:24.228Z,5.62
2018-08-03T18:54:24.217Z,5.62
2018-08-03T18:55:24.254Z,5.62
2018-08-03T18:56:24.197Z,5.62
2018-08-03T18:57:24.188Z,5.62
2018-08-03T18:58:24.175Z,5.62
2018-08-03T18:59:24.163Z,5.62
2018-08-03T19:00:24.176Z,5.62
2018-08-03T19:01:24.142Z,5.62
2018-08-03T19:02:24.133Z,5.62
2018-08-03T19:03:24.130Z,0.00
2018-08-03T19:04:24.108Z,0.00
2018-08-03T19:05:24.124Z,0.00
2018-08-03T19:06:24.113Z,0.00
2018-08-03T19:07:24.078Z,0.00
2018-08-03T19:08:24.068Z,0.00
2018-08-03T19:09:24.055Z,0.00
2018-08-03T19:10:24.046Z,0.00
2018-08-03T19:11:24.060Z,0.00
2018-08-03T19:12:24.030Z,0.00
2018-08-03T19:13:24.038Z,0.00
2018-08-03T19:14:24.001Z,0.00
2018-08-03T19:15:24.047Z,0.00
2018-08-03T19:16:23.982Z,0.00
2018-08-03T19:17:23.974Z,0.00
2018-08-03T19:18:23.965Z,0.00
2018-08-03T19:19:23.950Z,0.00
2018-08-03T19:20:23.961Z,0.00
2018-08-03T19:21:23.931Z,0.00
2018-08-03T19:22:23.921Z,0.00
2018-08-03T19:23:23.915Z,0.00
2018-08-03T19:24:23.896Z,0.00
2018-08-03T19:25:23.911Z,0.00
2018-08-03T19:26:23.874Z,0.00
2018-08-03T19:27:23.865Z,0.00
2018-08-03T19:28:23.858Z,0.00
2018-08-03T19:29:23.842Z,0.00
2018-08-03T19:30:23.872Z,0.00
2018-08-03T19:31:23.822Z,0.00
2018-08-03T19:32:23.812Z,0.00
2018-08-03T19:33:23.833Z,0.00
2018-08-03T19:34:23.791Z,0.00
2018-08-03T19:35:23.782Z,0.00
2018-08-03T19:36:23.774Z,0.00
2018-08-03T19:37:23.761Z,0.00
2018-08-03T19:38:23.784Z,0.00
2018-08-03T19:39:23.747Z,0.00
2018-08-03T19:40:24.451Z,0.00
2018-08-03T19:41:24.314Z,0.00
2018-08-03T19:42:23.704Z,0.00
2018-08-03T19:43:23.717Z,0.00
2018-08-03T19:44:23.683Z,0.00
2018-08-03T19:45:23.692Z,0.00
2018-08-03T19:46:23.661Z,0.00
2018-08-03T19:47:23.651Z,0.00
2018-08-03T19:48:23.665Z,0.00
2018-08-03T19:49:23.635Z,0.00
2018-08-03T19:50:23.617Z,0.00
2018-08-03T19:51:23.618Z,0.00
2018-08-03T19:52:23.600Z,0.00
2018-08-03T19:53:23.626Z,0.00
2018-08-03T19:54:23.609Z,0.00
2018-08-03T19:55:23.575Z,0.00
2018-08-03T19:56:24.473Z,0.00
2018-08-03T19:57:23.545Z,0.00
2018-08-03T19:58:23.596Z,0.00
2018-08-03T19:59:24.071Z,0.00
2018-08-03T20:00:23.511Z,0.00
2018-08-03T20:01:23.501Z,0.00
2018-08-03T20:02:23.496Z,0.00
2018-08-03T20:03:23.479Z,0.00
2018-08-03T20:04:23.507Z,0.00
2018-08-03T20:05:23.464Z,0.00
2018-08-03T20:06:23.447Z,0.00
2018-08-03T20:07:23.439Z,0.00
2018-08-03T20:08:23.430Z,0.00
2018-08-03T20:09:23.443Z,0.00
2018-08-03T20:10:23.431Z,0.00
2018-08-03T20:11:23.392Z,0.00
2018-08-03T20:12:23.386Z,0.00
2018-08-03T20:13:23.395Z,0.00
2018-08-03T20:14:23.362Z,0.00
2018-08-03T20:15:23.442Z,0.00
2018-08-03T20:16:23.367Z,0.00
2018-08-03T20:17:23.329Z,0.00
2018-08-03T20:18:23.321Z,0.00
2018-08-03T20:19:23.308Z,0.00
2018-08-03T20:20:23.298Z,0.00
2018-08-03T20:21:23.310Z,0.00
2018-08-03T20:22:23.273Z,0.00
2018-08-03T20:23:23.264Z,0.00
2018-08-03T20:24:23.290Z,0.00
2018-08-03T20:25:23.289Z,0.00
2018-08-03T20:26:23.274Z,0.00
2018-08-03T20:27:23.300Z,0.00
2018-08-03T20:28:23.330Z,0.00
2018-08-03T20:29:23.325Z,0.00
2018-08-03T20:30:25.995Z,0.00
2018-08-03T20:31:23.200Z,0.00
2018-08-03T20:32:23.187Z,0.00
2018-08-03T20:33:23.199Z,0.00
2018-08-03T20:34:23.277Z,0.00
2018-08-03T20:35:23.284Z,0.00
2018-08-03T20:36:23.481Z,0.00
2018-08-03T20:37:23.118Z,0.00
2018-08-03T20:38:23.149Z,0.00
2018-08-03T20:39:23.117Z,0.00
2018-08-03T20:40:23.114Z,0.00
2018-08-03T20:41:23.089Z,0.00
2018-08-03T20:42:23.071Z,0.00
2018-08-03T20:43:23.132Z,0.00
2018-08-03T20:44:23.087Z,0.00
2018-08-03T20:45:23.057Z,0.00
2018-08-03T20:46:23.488Z,0.00
2018-08-03T20:47:23.991Z,0.00
2018-08-03T20:48:23.069Z,0.00
2018-08-03T20:49:23.012Z,0.00
2018-08-03T20:50:23.041Z,0.00
2018-08-03T20:51:22.997Z,0.00
2018-08-03T20:52:22.967Z,0.00
2018-08-03T20:53:22.956Z,0.00
2018-08-03T20:54:22.979Z,0.00
2018-08-03T20:55:23.047Z,0.00
2018-08-03T20:56:22.921Z,0.00
2018-08-03T20:57:22.907Z,0.00
2018-08-03T20:58:22.965Z,0.00
2018-08-03T20:59:22.967Z,0.00
2018-08-03T21:00:22.895Z,0.00
2018-08-03T21:01:22.853Z,0.00
2018-08-03T21:02:22.875Z,0.00
2018-08-03T21:03:22.831Z,0.00
2018-08-03T21:04:22.879Z,0.00
2018-08-03T21:05:22.829Z,0.00
2018-08-03T21:06:22.810Z,0.00
2018-08-03T21:07:22.802Z,0.00
2018-08-03T21:08:22.784Z,0.00
2018-08-03T21:09:22.819Z,0.00
2018-08-03T21:10:22.756Z,0.00
2018-08-03T21:11:22.782Z,0.00
2018-08-03T21:12:22.753Z,0.00
2018-08-03T21:13:22.755Z,0.00
2018-08-03T21:14:22.723Z,0.00
2018-08-03T21:15:22.711Z,0.00
2018-08-03T21:16:22.696Z,0.00
2018-08-03T21:17:22.688Z,0.00
2018-08-03T21:18:22.705Z,0.00
2018-08-03T21:19:22.671Z,0.00
2018-08-03T21:20:22.679Z,0.00
2018-08-03T21:21:22.641Z,0.00
2018-08-03T21:22:22.665Z,0.00
2018-08-03T21:23:22.629Z,0.00
2018-08-03T21:24:22.610Z,0.00
2018-08-03T21:25:22.651Z,0.00
2018-08-03T21:26:22.595Z,0.00
2018-08-03T21:27:22.572Z,0.00
2018-08-03T21:28:22.567Z,0.00
